M I D A S
Marine Information and Data Acquisition System
Tripno 1668 of the Zeeleeuw from 2009-04-02 06:09:01 to 2009-04-02 15:49:45
Back to CruiseResearch ActivitiesStationsMapUnderway DataData graphs

EquipmentUnitsComment
TimeDGPSUTC
LatitudeDGPSDM.mWGS84
LongitudeDGPSDM.mWGS84
HeadingGyrodeg 
SOGDGPSknotsSpeed over ground
COGDGPSdegCourse over ground
DepthEcho soundermeters200 kHz
Missing or incorrect values are displayed as -999
Navigation data collected by the RV Zeeleeuw from 2009-04-02 05:58:47 to 2009-04-02 15:58:06
Time Latitude Longitude Heading SOG COG Depth
2009-04-02 05:59:52 51°13.663 2°55.959 125 -999 43 7.9
2009-04-02 06:00:52 51°13.662 2°55.959 125.2 -999 321 7.9
2009-04-02 06:01:52 51°13.665 2°55.959 125.4 -999 28 7.9
2009-04-02 06:02:52 51°13.662 2°55.959 127.1 -999 323 7.9
2009-04-02 06:03:52 51°13.662 2°55.959 128.1 -999 42 7.9
2009-04-02 06:04:52 51°13.662 2°55.958 128.9 0.1 291 7.9
2009-04-02 06:05:52 51°13.663 2°55.96 129.2 -999 339 7.9
2009-04-02 06:06:52 51°13.662 2°55.959 120.5 0.1 206 7.9
2009-04-02 06:07:52 51°13.663 2°55.952 111.1 1.6 291 8.1
2009-04-02 06:08:56 51°13.683 2°55.871 112.5 3.7 292 -999
2009-04-02 06:09:54 51°13.704 2°55.797 123 2.8 299 12.6
2009-04-02 06:10:56 51°13.738 2°55.732 147.2 3.4 321 -999
2009-04-02 06:11:55 51°13.748 2°55.713 147.9 2.3 323 13.6
2009-04-02 06:12:56 51°13.8 2°55.668 157.6 4.2 335 -999
2009-04-02 06:13:55 51°13.873 2°55.632 169 4.4 347 -999
2009-04-02 06:14:55 51°13.929 2°55.631 200 2.4 13 -999
2009-04-02 06:15:54 51°13.939 2°55.62 246.9 1.8 261 12.7
2009-04-02 06:16:52 51°13.958 2°55.555 318.8 3.8 319 12.7
2009-04-02 06:17:52 51°14.031 2°55.496 334.2 6.3 333 12.6
2009-04-02 06:18:52 51°14.14 2°55.398 331.1 8.3 328 12.7
2009-04-02 06:19:52 51°14.257 2°55.26 315.8 9.1 313 12.7
2009-04-02 06:20:52 51°14.353 2°55.059 309.6 9.8 308 12.5
2009-04-02 06:21:52 51°14.444 2°54.83 299.9 10.4 301 12.6
2009-04-02 06:22:52 51°14.535 2°54.586 299.6 11.2 303 12.6
2009-04-02 06:23:52 51°14.632 2°54.321 300.1 11.6 301 12.5
2009-04-02 06:24:52 51°14.735 2°54.054 300.7 11.8 303 12.2
2009-04-02 06:25:52 51°14.836 2°53.787 297.8 11.8 297 11.7
2009-04-02 06:26:52 51°14.918 2°53.505 293.2 11.8 293 11.7
2009-04-02 06:27:52 51°14.999 2°53.219 292.2 11.8 293 11.9
2009-04-02 06:28:52 51°15.085 2°52.937 296.3 11.7 295 12
2009-04-02 06:29:52 51°15.179 2°52.665 298.4 11.7 299 12.6
2009-04-02 06:30:52 51°15.267 2°52.39 291.1 11.6 292 12.9
2009-04-02 06:31:52 51°15.341 2°52.104 291.4 11.7 293 13.5
2009-04-02 06:32:52 51°15.41 2°51.817 286.7 11.5 286 13.7
2009-04-02 06:33:52 51°15.463 2°51.525 284 11.6 286 14.3
2009-04-02 06:34:52 51°15.518 2°51.228 284.6 11.7 286 14.4
2009-04-02 06:35:52 51°15.563 2°50.925 282.7 11.8 287 14.5
2009-04-02 06:36:51 51°15.638 2°50.644 294.8 11.8 298 14.6
2009-04-02 06:37:51 51°15.729 2°50.364 294.8 11.9 296 14.7
2009-04-02 06:38:52 51°15.806 2°50.07 288.6 11.8 290 13.7
2009-04-02 06:39:52 51°15.865 2°49.778 284.1 11.5 287 12.4
2009-04-02 06:40:52 51°15.898 2°49.477 276.6 11.5 275 12.5
2009-04-02 06:41:52 51°15.923 2°49.171 277.2 11.6 280 12.9
2009-04-02 06:42:52 51°15.945 2°48.865 276.6 11.7 276 14
2009-04-02 06:43:52 51°15.969 2°48.56 276.9 11.6 275 15.5
2009-04-02 06:44:52 51°15.997 2°48.255 277.1 11.6 277 16.5
2009-04-02 06:45:51 51°16.021 2°47.953 276.5 11.8 276 17
2009-04-02 06:46:51 51°16.047 2°47.645 278.1 11.7 277 17.4
2009-04-02 06:47:52 51°16.077 2°47.332 278.1 11.6 280 17.5
2009-04-02 06:48:52 51°16.105 2°47.028 277 11.8 283 16.4
2009-04-02 06:49:52 51°16.12 2°46.725 264.1 11.3 258 15.2
2009-04-02 06:50:52 51°16.054 2°46.45 240.7 11.2 242 13.5
2009-04-02 06:51:52 51°15.964 2°46.193 239.8 10.9 233 15.6
2009-04-02 06:52:52 51°15.881 2°45.933 244.7 10.9 239 16.4
2009-04-02 06:53:52 51°15.805 2°45.662 245.8 11.5 243 15.8
2009-04-02 06:54:52 51°15.742 2°45.383 253.5 11.1 263 14.5
2009-04-02 06:55:52 51°15.738 2°45.086 277.6 11.5 282 14.3
2009-04-02 06:56:52 51°15.826 2°44.812 302 12 309 13.7
2009-04-02 06:57:52 51°15.963 2°44.581 316.2 11.9 315 12.6
2009-04-02 06:58:52 51°16.11 2°44.364 317.3 12.2 320 12.5
2009-04-02 06:59:52 51°16.259 2°44.153 317.2 12 318 13.3
2009-04-02 07:00:52 51°16.408 2°43.942 317.5 12.1 319 15.3
2009-04-02 07:01:52 51°16.554 2°43.723 317.1 11.9 315 15.9
2009-04-02 07:02:52 51°16.699 2°43.504 317.8 11.9 317 15.8
2009-04-02 07:03:52 51°16.843 2°43.288 316.6 11.8 319 14.5
2009-04-02 07:04:52 51°16.985 2°43.064 316 12 315 15.2
2009-04-02 07:05:52 51°17.123 2°42.835 314 12 314 11.3
2009-04-02 07:06:52 51°17.261 2°42.599 314.3 12.3 313 12.2
2009-04-02 07:07:52 51°17.402 2°42.363 314.4 12.4 315 22.8
2009-04-02 07:08:52 51°17.545 2°42.126 313.6 12.4 313 24.8
2009-04-02 07:09:52 51°17.687 2°41.89 314.4 12.2 314 25.2
2009-04-02 07:10:52 51°17.833 2°41.659 314.1 12.2 316 24.8
2009-04-02 07:11:52 51°17.976 2°41.431 313.9 12.2 314 24.2
2009-04-02 07:12:52 51°18.114 2°41.202 314.4 11.9 315 21.5
2009-04-02 07:13:52 51°18.248 2°40.969 312.4 12 310 19.3
2009-04-02 07:14:52 51°18.383 2°40.735 311.6 12 311 20.6
2009-04-02 07:15:52 51°18.521 2°40.503 312 12.1 311 17.5
2009-04-02 07:16:52 51°18.654 2°40.271 310.2 12 313 23.5
2009-04-02 07:17:52 51°18.783 2°40.028 308.4 12.1 311 24.9
2009-04-02 07:18:52 51°18.913 2°39.785 309.4 12.1 309 25
2009-04-02 07:19:52 51°19.046 2°39.538 308.6 12.1 311 26.2
2009-04-02 07:20:52 51°19.177 2°39.291 308.8 12.2 311 28.8
2009-04-02 07:21:52 51°19.304 2°39.04 305.4 12.1 306 29.3
2009-04-02 07:22:52 51°19.422 2°38.78 303.5 12.1 306 28.3
2009-04-02 07:23:52 51°19.536 2°38.514 303.1 12.2 305 24.7
2009-04-02 07:24:52 51°19.645 2°38.239 302.2 12.4 303 23.9
2009-04-02 07:25:52 51°19.756 2°37.964 303 12.3 298 23.8
2009-04-02 07:26:52 51°19.869 2°37.695 304.7 12.2 305 22.4
2009-04-02 07:27:52 51°19.982 2°37.428 303.5 12.2 307 22.1
2009-04-02 07:28:52 51°20.093 2°37.158 303.5 12.1 307 21
2009-04-02 07:29:52 51°20.204 2°36.888 303.2 12.2 305 22.8
2009-04-02 07:30:52 51°20.313 2°36.62 302 12.1 305 22.7
2009-04-02 07:31:52 51°20.424 2°36.351 302.7 12.2 304 21.4
2009-04-02 07:32:52 51°20.534 2°36.081 303.1 12 304 20.4
2009-04-02 07:33:52 51°20.644 2°35.811 304.4 12 304 23.5
2009-04-02 07:34:52 51°20.757 2°35.547 303.5 12 304 28.7
2009-04-02 07:35:52 51°20.819 2°35.25 282.5 11.8 276 30.9
2009-04-02 07:36:52 51°20.863 2°34.943 282.8 12 288 31.8
2009-04-02 07:37:52 51°20.912 2°34.629 283.4 12.3 282 32.6
2009-04-02 07:38:52 51°20.967 2°34.317 285.6 12 289 31.6
2009-04-02 07:39:52 51°21.02 2°34.005 283.9 12.2 284 31.3
2009-04-02 07:40:52 51°21.095 2°33.705 292.6 12.1 294 32.6
2009-04-02 07:41:52 51°21.174 2°33.411 291.5 12.1 292 31.4
2009-04-02 07:42:52 51°21.25 2°33.115 290.3 12.1 288 29.8
2009-04-02 07:43:52 51°21.352 2°32.837 308.6 12.4 310 25.7
2009-04-02 07:44:52 51°21.514 2°32.644 332.1 12.4 332 21.6
2009-04-02 07:45:52 51°21.693 2°32.485 333.2 12.1 330 23.7
2009-04-02 07:46:52 51°21.869 2°32.322 332.7 12.3 330 28.4
2009-04-02 07:47:52 51°22.043 2°32.153 331.1 12.3 327 32.1
2009-04-02 07:48:52 51°22.223 2°32.013 340 12.2 337 31.9
2009-04-02 07:49:52 51°22.41 2°31.89 339.8 12.1 338 31.4
2009-04-02 07:50:52 51°22.595 2°31.765 340.1 12.2 336 31.5
2009-04-02 07:51:52 51°22.782 2°31.644 339.8 12.1 337 31.3
2009-04-02 07:52:52 51°22.97 2°31.525 339.5 12.3 339 28.6
2009-04-02 07:53:52 51°23.157 2°31.407 339 11.9 338 27.4
2009-04-02 07:54:52 51°23.328 2°31.255 322.3 11.8 325 26.5
2009-04-02 07:55:52 51°23.475 2°31.044 317.5 11.5 318 31.2
2009-04-02 07:56:52 51°23.583 2°30.816 291.1 10.5 291 33
2009-04-02 07:57:52 51°23.635 2°30.545 284 10.8 287 34.5
2009-04-02 07:58:52 51°23.675 2°30.309 283.4 8.2 284 33.5
2009-04-02 07:59:52 51°23.734 2°30.181 336.2 4.4 339 33.3
2009-04-02 08:00:51 51°23.79 2°30.185 30.9 2.9 27 33.8
2009-04-02 08:01:52 51°23.814 2°30.227 76.8 1.6 74 33.3
2009-04-02 08:02:51 51°23.816 2°30.245 112 0.4 106 33.6
2009-04-02 08:03:52 51°23.813 2°30.249 127 0.2 169 33.6
2009-04-02 08:04:52 51°23.811 2°30.25 135.1 0.3 215 33.1
2009-04-02 08:05:52 51°23.808 2°30.247 139.3 0.2 197 33.3
2009-04-02 08:06:52 51°23.805 2°30.244 139.3 0.1 211 33.2
2009-04-02 08:07:51 51°23.803 2°30.24 139.4 0.2 208 33.3
2009-04-02 08:08:52 51°23.801 2°30.237 138.2 0.4 227 33.2
2009-04-02 08:09:52 51°23.797 2°30.232 135.4 0.2 215 33.4
2009-04-02 08:10:52 51°23.794 2°30.227 134.1 0.5 230 33.2
2009-04-02 08:11:52 51°23.791 2°30.22 138.1 0.2 240 33.4
2009-04-02 08:12:52 51°23.79 2°30.213 140.9 0.4 254 33.4
2009-04-02 08:13:52 51°23.787 2°30.206 140 0.4 227 33.3
2009-04-02 08:14:51 51°23.784 2°30.201 136.1 0.2 211 33.6
2009-04-02 08:15:52 51°23.781 2°30.195 133.6 0.3 238 33.5
2009-04-02 08:16:52 51°23.778 2°30.187 134.2 0.3 247 33.7
2009-04-02 08:17:52 51°23.775 2°30.179 138.5 0.3 240 33.4
2009-04-02 08:18:52 51°23.773 2°30.171 141.6 0.4 208 33.8
2009-04-02 08:19:52 51°23.751 2°30.18 161.1 2.6 167 33.3
2009-04-02 08:20:52 51°23.688 2°30.16 212.4 4.8 217 33.2
2009-04-02 08:21:52 51°23.649 2°30.06 258.4 3.6 264 33.1
2009-04-02 08:22:52 51°23.66 2°29.986 305.8 2.4 306 33
2009-04-02 08:23:52 51°23.684 2°29.946 327.5 1.6 316 33.3
2009-04-02 08:24:52 51°23.7 2°29.919 329.4 1.5 306 33.3
2009-04-02 08:25:52 51°23.715 2°29.887 316.2 1.3 303 32.9
2009-04-02 08:26:52 51°23.724 2°29.862 320 1 296 33.6
2009-04-02 08:27:52 51°23.73 2°29.839 322 0.7 304 33.6
2009-04-02 08:28:52 51°23.737 2°29.816 325.5 1.1 283 32.2
2009-04-02 08:29:52 51°23.74 2°29.799 325.5 0.6 258 32.6
2009-04-02 08:30:52 51°23.737 2°29.781 319.5 0.7 242 32.3
2009-04-02 08:31:52 51°23.733 2°29.764 312.6 0.7 255 33.4
2009-04-02 08:32:52 51°23.729 2°29.748 305.5 0.6 252 33
2009-04-02 08:33:52 51°23.726 2°29.733 302.9 0.6 244 33
2009-04-02 08:34:52 51°23.719 2°29.726 298.4 0.3 191 32.8
2009-04-02 08:35:52 51°23.722 2°29.698 308 2.4 302 33.2
2009-04-02 08:36:52 51°23.735 2°29.667 334.7 0.6 233 33.4
2009-04-02 08:37:52 51°23.745 2°29.638 337.2 2.4 327 33.1
2009-04-02 08:38:52 51°23.786 2°29.631 30.7 2.2 20 33.6
2009-04-02 08:39:52 51°23.802 2°29.676 95.9 1.9 107 33.4
2009-04-02 08:40:52 51°23.779 2°29.715 130.3 2.2 135 33.2
2009-04-02 08:41:51 51°23.763 2°29.758 106.8 1.8 117 32.7
2009-04-02 08:42:52 51°23.751 2°29.786 112.4 1 135 32.6
2009-04-02 08:43:52 51°23.742 2°29.795 113.2 0.5 156 32.9
2009-04-02 08:44:52 51°23.734 2°29.793 115.6 0.5 206 30
2009-04-02 08:45:52 51°23.727 2°29.784 120.2 0.7 223 28.6
2009-04-02 08:46:52 51°23.72 2°29.771 126.3 0.7 229 28.8
2009-04-02 08:47:52 51°23.709 2°29.77 116 0.8 144 32.8
2009-04-02 08:48:52 51°23.699 2°29.782 102.4 0.6 144 32.6
2009-04-02 08:49:52 51°23.692 2°29.785 103.2 0.4 195 32.4
2009-04-02 08:50:52 51°23.684 2°29.791 94.4 0.8 122 32.5
2009-04-02 08:51:52 51°23.688 2°29.82 57.7 1.3 55 33.2
2009-04-02 08:52:52 51°23.709 2°29.83 6.6 1.7 345 33.2
2009-04-02 08:53:52 51°23.73 2°29.809 355.8 1.1 313 33.4
2009-04-02 08:54:52 51°23.737 2°29.786 348.3 1 286 32.5
2009-04-02 08:55:52 51°23.738 2°29.762 338.3 1 261 32.9
2009-04-02 08:56:52 51°23.733 2°29.74 324.5 0.8 237 32.4
2009-04-02 08:57:51 51°23.726 2°29.72 311.6 0.8 238 32.9
2009-04-02 08:58:52 51°23.72 2°29.7 303.5 0.8 250 33.2
2009-04-02 08:59:52 51°23.718 2°29.671 309.2 1.7 288 33.6
2009-04-02 09:00:52 51°23.737 2°29.632 344.2 1.9 320 32.9
2009-04-02 09:01:51 51°23.767 2°29.614 20 2.1 3 33.3
2009-04-02 09:02:52 51°23.789 2°29.643 80.3 2 89 33.3
2009-04-02 09:03:52 51°23.774 2°29.697 113.1 2.4 124 33.1
2009-04-02 09:04:52 51°23.76 2°29.748 97.9 1.6 109 32.5
2009-04-02 09:05:52 51°23.746 2°29.784 105.6 1.7 127 32.1
2009-04-02 09:06:52 51°23.736 2°29.819 92.8 1 118 32.6
2009-04-02 09:07:52 51°23.727 2°29.832 97.7 0.6 159 33.3
2009-04-02 09:08:52 51°23.716 2°29.832 104.2 0.7 204 33
2009-04-02 09:09:51 51°23.706 2°29.821 112.9 0.8 220 33.2
2009-04-02 09:10:51 51°23.695 2°29.805 122.8 1 218 32.9
2009-04-02 09:11:51 51°23.682 2°29.787 134.1 1 207 32.3
2009-04-02 09:12:52 51°23.665 2°29.785 119 1 161 32.7
2009-04-02 09:13:52 51°23.65 2°29.805 92.1 1 126 32.7
2009-04-02 09:14:52 51°23.647 2°29.829 65.1 1.1 72 33
2009-04-02 09:15:52 51°23.665 2°29.839 6.6 1.5 332 32.6
2009-04-02 09:16:52 51°23.69 2°29.817 8.2 1.9 344 33
2009-04-02 09:17:52 51°23.713 2°29.813 31.3 1 351 33.1
2009-04-02 09:18:52 51°23.728 2°29.807 28.1 0.9 340 33.2
2009-04-02 09:19:51 51°23.742 2°29.801 35.5 0.6 346 32.3
2009-04-02 09:20:51 51°23.747 2°29.791 44 0.5 281 32.5
2009-04-02 09:21:51 51°23.743 2°29.771 49.1 0.8 254 32.2
2009-04-02 09:22:52 51°23.74 2°29.767 86.5 0.7 140 32.1
2009-04-02 09:23:52 51°23.726 2°29.777 100.9 1.1 148 29
2009-04-02 09:24:52 51°23.713 2°29.788 100.5 1 169 32.6
2009-04-02 09:25:52 51°23.699 2°29.786 107.2 0.7 195 32.3
2009-04-02 09:26:52 51°23.684 2°29.774 113.3 0.9 214 32.2
2009-04-02 09:27:52 51°23.669 2°29.755 122.4 1.3 221 32.7
2009-04-02 09:28:51 51°23.655 2°29.733 130.1 1.3 227 32.8
2009-04-02 09:29:51 51°23.631 2°29.74 112.2 2.7 122 33.3
2009-04-02 09:30:51 51°23.648 2°29.821 48.6 5 45 32.7
2009-04-02 09:31:52 51°23.726 2°29.946 51.2 7.2 50 32.6
2009-04-02 09:32:52 51°23.816 2°30.137 55.3 10.5 53 32.3
2009-04-02 09:33:52 51°23.922 2°30.369 55.6 10.9 53 32.5
2009-04-02 09:34:52 51°24.033 2°30.601 53.9 10.9 52 32.6
2009-04-02 09:35:52 51°24.145 2°30.832 53.8 10.9 51 32.7
2009-04-02 09:36:52 51°24.255 2°31.063 55.2 11.1 53 27.1
2009-04-02 09:37:52 51°24.365 2°31.295 55.2 11 53 32.9
2009-04-02 09:38:52 51°24.477 2°31.525 54.4 11 52 32.5
2009-04-02 09:39:52 51°24.59 2°31.757 53.9 11 52 29.9
2009-04-02 09:40:52 51°24.699 2°31.987 55.4 10.7 56 30.8
2009-04-02 09:41:52 51°24.808 2°32.215 55.1 10.7 50 25.2
2009-04-02 09:42:51 51°24.917 2°32.44 54.9 11 51 27.1
2009-04-02 09:43:52 51°25.027 2°32.668 54.3 10.6 52 19.7
2009-04-02 09:44:52 51°25.14 2°32.891 53.3 10.9 52 22
2009-04-02 09:45:52 51°25.25 2°33.119 55.9 10.8 54 18.7
2009-04-02 09:46:52 51°25.363 2°33.344 54.4 10.7 51 20.6
2009-04-02 09:47:52 51°25.477 2°33.566 53.6 10.9 49 18.2
2009-04-02 09:48:52 51°25.59 2°33.792 54.5 10.9 52 22
2009-04-02 09:49:52 51°25.701 2°34.018 54.5 10.8 53 23.8
2009-04-02 09:50:52 51°25.809 2°34.245 57.2 10.6 56 26
2009-04-02 09:51:51 51°25.905 2°34.481 60 10.8 57 26.6
2009-04-02 09:52:52 51°26.003 2°34.725 59.8 10.7 58 28.9
2009-04-02 09:53:52 51°26.099 2°34.968 58.2 11 58 30.9
2009-04-02 09:54:52 51°26.196 2°35.213 59.6 10.9 57 31.4
2009-04-02 09:55:52 51°26.289 2°35.46 59.8 10.9 57 31.3
2009-04-02 09:56:51 51°26.384 2°35.696 58.8 10.4 56 31.6
2009-04-02 09:57:52 51°26.481 2°35.94 58.4 10.7 57 31.9
2009-04-02 09:58:52 51°26.577 2°36.184 60 11 57 32.2
2009-04-02 09:59:52 51°26.673 2°36.432 60.4 10.9 56 32.3
2009-04-02 10:00:52 51°26.767 2°36.679 59.7 10.9 57 32
2009-04-02 10:01:52 51°26.862 2°36.925 59.5 10.9 59 31.9
2009-04-02 10:02:52 51°26.953 2°37.166 58.9 10.8 57 31.8
2009-04-02 10:03:52 51°27.049 2°37.414 59.8 11 57 31.8
2009-04-02 10:04:52 51°27.143 2°37.657 59.2 10.8 60 31.5
2009-04-02 10:05:52 51°27.239 2°37.904 59.4 10.8 59 32.5
2009-04-02 10:06:52 51°27.333 2°38.149 59.2 10.8 61 32.3
2009-04-02 10:07:52 51°27.426 2°38.39 59.4 10.4 58 32.1
2009-04-02 10:08:52 51°27.52 2°38.631 59.2 11 58 32
2009-04-02 10:09:52 51°27.615 2°38.876 59.5 10.8 59 31.9
2009-04-02 10:10:52 51°27.709 2°39.122 59.2 10.9 59 32.5
2009-04-02 10:11:52 51°27.804 2°39.367 58.7 10.9 57 34
2009-04-02 10:12:52 51°27.902 2°39.614 58.8 11 57 32.2
2009-04-02 10:13:52 51°27.999 2°39.861 58.3 11 56 33.1
2009-04-02 10:14:52 51°28.094 2°40.11 60.1 10.9 60 32
2009-04-02 10:15:52 51°28.189 2°40.357 59.4 10.8 60 31.9
2009-04-02 10:16:52 51°28.285 2°40.602 58.8 10.8 60 30.6
2009-04-02 10:17:52 51°28.379 2°40.848 62.1 10.9 58 32.5
2009-04-02 10:18:52 51°28.454 2°41.109 66.6 10.8 65 30.6
2009-04-02 10:19:52 51°28.53 2°41.37 65.3 10.8 67 29.1
2009-04-02 10:20:52 51°28.606 2°41.63 66.1 10.9 65 30.1
2009-04-02 10:21:52 51°28.682 2°41.892 65.7 10.7 65 31.5
2009-04-02 10:22:52 51°28.76 2°42.152 65.4 10.6 65 31.9
2009-04-02 10:23:52 51°28.854 2°42.394 53.3 10.7 51 32.3
2009-04-02 10:24:52 51°28.976 2°42.61 50.7 10.9 47 29.4
2009-04-02 10:25:52 51°29.097 2°42.823 51.3 10.8 48 30.8
2009-04-02 10:26:52 51°29.212 2°43.04 52.5 10.5 52 31.1
2009-04-02 10:27:52 51°29.311 2°43.275 61 10.4 61 29.1
2009-04-02 10:28:52 51°29.385 2°43.529 67.6 10.5 69 29.9
2009-04-02 10:29:52 51°29.436 2°43.8 77 10.7 79 29.9
2009-04-02 10:30:52 51°29.462 2°44.085 81.6 10.9 84 30.6
2009-04-02 10:31:52 51°29.485 2°44.37 80.9 10.7 81 29.6
2009-04-02 10:32:52 51°29.512 2°44.654 80 10.7 84 28.7
2009-04-02 10:33:52 51°29.537 2°44.937 80 10.7 81 26.8
2009-04-02 10:34:52 51°29.563 2°45.218 79.5 10.6 82 27
2009-04-02 10:35:52 51°29.593 2°45.496 78.9 10.6 80 24.6
2009-04-02 10:36:52 51°29.622 2°45.775 78.4 10.7 79 20.4
2009-04-02 10:37:52 51°29.658 2°46.048 76.5 10.5 81 24.7
2009-04-02 10:38:52 51°29.697 2°46.321 76.1 10.6 77 22.7
2009-04-02 10:39:52 51°29.735 2°46.595 76.4 10.6 78 23.3
2009-04-02 10:40:52 51°29.772 2°46.871 75.9 10.6 78 19.4
2009-04-02 10:41:52 51°29.809 2°47.146 76.3 10.6 77 20.5
2009-04-02 10:42:52 51°29.849 2°47.424 76.8 10.6 77 23.6
2009-04-02 10:43:52 51°29.888 2°47.704 77 10.8 76 21.1
2009-04-02 10:44:52 51°29.933 2°47.979 74 10.6 75 24
2009-04-02 10:45:52 51°29.978 2°48.253 74.1 10.6 76 23.8
2009-04-02 10:46:52 51°30.02 2°48.527 74 10.6 76 23.7
2009-04-02 10:47:52 51°30.063 2°48.802 74.8 10.4 76 21.8
2009-04-02 10:48:52 51°30.106 2°49.074 74.3 10.6 75 23.6
2009-04-02 10:49:53 51°30.153 2°49.351 73.6 10.6 75 22.9
2009-04-02 10:50:52 51°30.195 2°49.62 74.1 10.3 76 21.2
2009-04-02 10:51:52 51°30.229 2°49.836 66.9 4.9 65 20.2
2009-04-02 10:52:52 51°30.273 2°49.858 355.8 3 331 22.2
2009-04-02 10:53:53 51°30.318 2°49.795 340.5 3.7 317 22.9
2009-04-02 10:54:52 51°30.366 2°49.737 350.1 3.5 327 23.8
2009-04-02 10:55:52 51°30.415 2°49.694 358.8 3.2 335 24.2
2009-04-02 10:56:52 51°30.463 2°49.663 5.3 2.7 339 21.8
2009-04-02 10:57:52 51°30.479 2°49.632 3.8 1.4 286 21.8
2009-04-02 10:58:52 51°30.478 2°49.595 355.8 1.6 251 23.9
2009-04-02 10:59:52 51°30.468 2°49.552 343.3 1.8 268 25.2
2009-04-02 11:00:53 51°30.497 2°49.495 349.2 3.9 326 25.4
2009-04-02 11:01:52 51°30.552 2°49.461 11.7 3.1 356 23.5
2009-04-02 11:02:52 51°30.593 2°49.499 55.9 3.9 61 25.3
2009-04-02 11:03:52 51°30.617 2°49.602 66.1 4.2 76 25.2
2009-04-02 11:04:52 51°30.622 2°49.71 77 3.7 88 23.7
2009-04-02 11:05:52 51°30.621 2°49.808 77.2 3.6 91 22.1
2009-04-02 11:06:52 51°30.62 2°49.902 76.5 3.5 92 21.7
2009-04-02 11:07:52 51°30.618 2°49.996 75.8 3.5 92 23.1
2009-04-02 11:08:52 51°30.618 2°50.089 75.2 3.5 88 24.2
2009-04-02 11:09:52 51°30.617 2°50.184 76.3 3.6 91 23.1
2009-04-02 11:10:52 51°30.616 2°50.275 75.6 3.4 90 24.6
2009-04-02 11:11:52 51°30.616 2°50.367 75.3 3.5 90 23.1
2009-04-02 11:12:52 51°30.615 2°50.461 75.6 3.4 89 22.5
2009-04-02 11:13:52 51°30.619 2°50.554 69.8 3.4 81 23.7
2009-04-02 11:14:52 51°30.627 2°50.643 68.9 3.3 85 23.1
2009-04-02 11:15:52 51°30.635 2°50.728 67.9 3.2 84 20.6
2009-04-02 11:16:52 51°30.639 2°50.805 68.3 2.8 83 22.7
2009-04-02 11:17:52 51°30.646 2°50.891 69.6 3.4 79 22.2
2009-04-02 11:18:52 51°30.654 2°50.984 69.8 3.6 83 21.6
2009-04-02 11:19:52 51°30.661 2°51.078 69.6 3.6 83 20
2009-04-02 11:20:52 51°30.669 2°51.173 69.6 3.5 83 20.2
2009-04-02 11:21:52 51°30.684 2°51.257 57.5 3.1 65 20.4
2009-04-02 11:22:52 51°30.714 2°51.323 42.5 3.2 44 22.4
2009-04-02 11:23:52 51°30.754 2°51.38 40.4 3.3 41 18.6
2009-04-02 11:24:52 51°30.794 2°51.437 41 3 41 21.2
2009-04-02 11:25:52 51°30.832 2°51.494 43.5 3.1 45 19
2009-04-02 11:26:52 51°30.873 2°51.54 32.7 3.2 28 19.9
2009-04-02 11:27:52 51°30.922 2°51.577 31.9 3.3 26 22
2009-04-02 11:28:52 51°30.972 2°51.619 34.2 3.2 30 19.8
2009-04-02 11:29:52 51°31.019 2°51.66 33.4 3.3 27 22.1
2009-04-02 11:30:52 51°31.066 2°51.7 33.7 3.3 29 21.4
2009-04-02 11:31:52 51°31.114 2°51.743 34 3.4 28 22.7
2009-04-02 11:32:52 51°31.161 2°51.785 34.5 3.3 28 20.6
2009-04-02 11:33:52 51°31.209 2°51.825 28.2 3.2 19 22.6
2009-04-02 11:34:52 51°31.26 2°51.844 21.7 2.9 8 18.8
2009-04-02 11:35:52 51°31.308 2°51.852 19.1 3 6 22.5
2009-04-02 11:36:52 51°31.357 2°51.856 17.2 3 3 23
2009-04-02 11:37:52 51°31.407 2°51.86 18.4 3 8 23.4
2009-04-02 11:38:52 51°31.446 2°51.878 31.1 1.7 21 23.8
2009-04-02 11:39:52 51°31.468 2°51.887 32 1 13 24.4
2009-04-02 11:40:52 51°31.479 2°51.89 34.6 0.4 353 24.8
2009-04-02 11:41:52 51°31.483 2°51.888 37.7 0.1 12 24.4
2009-04-02 11:42:52 51°31.484 2°51.888 41.5 0.1 135 24.6
2009-04-02 11:43:52 51°31.475 2°51.896 81.4 1.4 161 24.4
2009-04-02 11:44:52 51°31.447 2°51.897 108.3 1.9 187 24.2
2009-04-02 11:45:52 51°31.416 2°51.884 107.5 2 200 21
2009-04-02 11:46:52 51°31.386 2°51.87 104.1 1.8 181 24
2009-04-02 11:47:52 51°31.362 2°51.908 82.1 3.3 105 23.8
2009-04-02 11:48:52 51°31.351 2°52.023 83.9 5.1 99 20
2009-04-02 11:49:52 51°31.337 2°52.203 88.6 7.7 99 21.5
2009-04-02 11:50:52 51°31.315 2°52.41 92 8 102 20.7
2009-04-02 11:51:52 51°31.291 2°52.563 86.2 3.6 108 21.5
2009-04-02 11:52:53 51°31.271 2°52.613 82.2 1.7 142 20.8
2009-04-02 11:53:52 51°31.248 2°52.63 78.3 1.4 142 20.7
2009-04-02 11:54:53 51°31.235 2°52.643 51.1 1.1 191 20.6
2009-04-02 11:55:53 51°31.209 2°52.623 60.3 2 204 18.2
2009-04-02 11:56:53 51°31.189 2°52.602 50.9 0.9 217 20.9
2009-04-02 11:57:52 51°31.188 2°52.597 29.8 0.2 292 20.7
2009-04-02 11:58:52 51°31.189 2°52.594 34.1 0.1 303 21.1
2009-04-02 11:59:53 51°31.188 2°52.596 42.9 -999 71 20.7
2009-04-02 12:00:53 51°31.187 2°52.598 40.2 0.2 117 20.7
2009-04-02 12:01:52 51°31.186 2°52.598 35.3 -999 192 21
2009-04-02 12:02:53 51°31.188 2°52.597 33.3 0.2 313 20.9
2009-04-02 12:03:52 51°31.188 2°52.595 36.8 -999 52 20.8
2009-04-02 12:04:52 51°31.187 2°52.598 41.2 0.2 123 20.9
2009-04-02 12:05:52 51°31.186 2°52.599 38.7 0.1 102 20.9
2009-04-02 12:06:53 51°31.188 2°52.596 30.8 0.3 286 20.9
2009-04-02 12:07:52 51°31.19 2°52.592 31.1 -999 23 21
2009-04-02 12:08:53 51°31.19 2°52.591 41.2 -999 287 21
2009-04-02 12:09:53 51°31.188 2°52.595 44.2 0.1 217 20.9
2009-04-02 12:10:52 51°31.188 2°52.595 35 0.1 177 20.9
2009-04-02 12:11:53 51°31.188 2°52.596 36.6 0.1 70 21
2009-04-02 12:12:53 51°31.188 2°52.594 35.4 0.2 343 20.9
2009-04-02 12:13:53 51°31.187 2°52.595 39.1 0.1 210 20.9
2009-04-02 12:14:52 51°31.186 2°52.598 39.6 0.2 158 20.8
2009-04-02 12:15:53 51°31.186 2°52.598 33.6 0.1 277 21
2009-04-02 12:16:53 51°31.187 2°52.596 31.8 0.1 16 20.9
2009-04-02 12:17:52 51°31.188 2°52.595 34.9 0.1 284 21
2009-04-02 12:18:53 51°31.187 2°52.597 39.8 0.2 114 20.9
2009-04-02 12:19:53 51°31.186 2°52.598 37.9 0.2 112 21
2009-04-02 12:20:53 51°31.186 2°52.598 33.2 0.2 231 20.9
2009-04-02 12:21:52 51°31.187 2°52.596 34.2 0.1 261 21
2009-04-02 12:22:53 51°31.187 2°52.596 37.6 -999 165 20.9
2009-04-02 12:23:52 51°31.185 2°52.601 44.1 0.4 99 21
2009-04-02 12:24:53 51°31.185 2°52.602 33.6 0.1 307 21.2
2009-04-02 12:25:53 51°31.186 2°52.597 29.4 0.3 295 21
2009-04-02 12:26:53 51°31.189 2°52.594 31.3 0.1 303 21.2
2009-04-02 12:27:53 51°31.188 2°52.595 40.3 0.2 103 21.1
2009-04-02 12:28:53 51°31.187 2°52.598 38.5 0.1 164 21
2009-04-02 12:29:53 51°31.187 2°52.597 33.7 0.2 326 21.1
2009-04-02 12:30:52 51°31.188 2°52.594 30.2 0.1 38 21.1
2009-04-02 12:31:53 51°31.189 2°52.592 35.8 0.2 193 21.1
2009-04-02 12:32:52 51°31.186 2°52.598 42.1 0.2 130 21.2
2009-04-02 12:33:52 51°31.185 2°52.601 34.9 0.1 281 21.1
2009-04-02 12:34:53 51°31.186 2°52.598 29.5 0.2 32 21.1
2009-04-02 12:35:52 51°31.188 2°52.593 29.1 0.2 333 21
2009-04-02 12:36:53 51°31.186 2°52.596 41.8 0.2 107 21.1
2009-04-02 12:37:53 51°31.185 2°52.599 36.5 0.2 194 21.2
2009-04-02 12:38:53 51°31.185 2°52.599 32.1 0.1 305 21.1
2009-04-02 12:39:53 51°31.186 2°52.598 34.9 0.1 46 21.2
2009-04-02 12:40:53 51°31.184 2°52.599 36.3 0.1 147 21.2
2009-04-02 12:41:53 51°31.185 2°52.598 31.2 0.1 278 21.2
2009-04-02 12:42:53 51°31.185 2°52.598 36.1 0.1 123 21.2
2009-04-02 12:43:53 51°31.185 2°52.598 35.7 0.1 246 21.2
2009-04-02 12:44:52 51°31.187 2°52.599 34.2 0.4 32 21.1
2009-04-02 12:45:53 51°31.194 2°52.605 32 0.4 44 21
2009-04-02 12:46:53 51°31.201 2°52.61 32.4 0.5 41 20.3
2009-04-02 12:47:53 51°31.209 2°52.617 29.6 0.9 16 19
2009-04-02 12:48:53 51°31.213 2°52.62 37.6 0.4 191 17.2
2009-04-02 12:49:53 51°31.2 2°52.61 45.8 1.4 198 20.5
2009-04-02 12:50:53 51°31.173 2°52.592 68.5 1.8 204 20.1
2009-04-02 12:51:53 51°31.141 2°52.567 97.3 2.2 209 20.9
2009-04-02 12:52:52 51°31.109 2°52.537 119.2 2.2 209 18.3
2009-04-02 12:53:52 51°31.077 2°52.506 133.4 2.3 210 20.7
2009-04-02 12:54:53 51°31.045 2°52.475 137.6 2.2 211 21
2009-04-02 12:55:53 51°31.015 2°52.446 134.4 2 213 20.5
2009-04-02 12:56:53 51°30.984 2°52.416 131.3 2.1 210 18.9
2009-04-02 12:57:53 51°30.953 2°52.386 126.7 2.1 210 20.6
2009-04-02 12:58:53 51°30.924 2°52.356 126.4 2.1 213 20.5
2009-04-02 12:59:53 51°30.893 2°52.326 129.4 2.2 211 16.7
2009-04-02 13:00:53 51°30.863 2°52.295 131.4 2.2 211 19.8
2009-04-02 13:01:52 51°30.829 2°52.277 120.7 2.5 169 20.2
2009-04-02 13:02:53 51°30.819 2°52.344 55.7 5 63 20.4
2009-04-02 13:03:53 51°30.87 2°52.515 59.6 8.1 63 20.1
2009-04-02 13:04:53 51°30.932 2°52.72 59.6 8.5 63 20.4
2009-04-02 13:05:53 51°31.003 2°52.942 60.2 10.1 64 18.6
2009-04-02 13:06:53 51°31.081 2°53.185 59.7 10.2 63 19.5
2009-04-02 13:07:53 51°31.164 2°53.425 55.3 10.3 58 20.2
2009-04-02 13:08:53 51°31.256 2°53.657 54.8 10.3 57 18.6
2009-04-02 13:09:52 51°31.346 2°53.884 55.7 10.1 58 19.6
2009-04-02 13:10:52 51°31.437 2°54.113 55.1 10.2 59 18
2009-04-02 13:11:52 51°31.529 2°54.34 54.8 10.2 58 19.2
2009-04-02 13:12:52 51°31.621 2°54.57 55.6 10.3 58 17.4
2009-04-02 13:13:53 51°31.712 2°54.805 55.2 10.2 59 18.9
2009-04-02 13:14:52 51°31.8 2°55.03 55.9 9.3 60 18.6
2009-04-02 13:15:53 51°31.862 2°55.2 55.3 5.6 60 20.4
2009-04-02 13:16:53 51°31.896 2°55.306 54.5 3.8 64 19.4
2009-04-02 13:17:53 51°31.916 2°55.381 54.4 2.4 66 21
2009-04-02 13:18:53 51°31.943 2°55.376 346 2 295 20.9
2009-04-02 13:19:53 51°31.94 2°55.324 332.5 1.8 247 21.4
2009-04-02 13:20:53 51°31.923 2°55.281 332.9 2 230 20.5
2009-04-02 13:21:53 51°31.901 2°55.239 327.8 2.1 224 19.6
2009-04-02 13:22:53 51°31.874 2°55.203 319.2 2.3 214 20.7
2009-04-02 13:23:53 51°31.842 2°55.17 306.5 2.3 212 19.7
2009-04-02 13:24:53 51°31.81 2°55.142 298.8 2.4 210 19.7
2009-04-02 13:25:52 51°31.783 2°55.078 260.7 4.2 239 19.8
2009-04-02 13:26:52 51°31.719 2°55.012 184.1 4.5 193 20.5
2009-04-02 13:27:53 51°31.655 2°55.014 139.3 2.9 180 19.4
2009-04-02 13:28:53 51°31.614 2°55.006 134.6 2.4 186 19.9
2009-04-02 13:29:53 51°31.577 2°54.994 123.9 2.1 192 18
2009-04-02 13:30:53 51°31.545 2°54.978 116 2 198 19.9
2009-04-02 13:31:53 51°31.514 2°54.958 114.5 2.2 205 17.2
2009-04-02 13:32:53 51°31.483 2°54.937 117.3 2 204 19.6
2009-04-02 13:33:53 51°31.451 2°54.916 118.8 2.1 203 16.9
2009-04-02 13:34:52 51°31.42 2°54.894 120.3 2 201 19.6
2009-04-02 13:35:53 51°31.388 2°54.87 121.3 2.1 207 16.5
2009-04-02 13:36:53 51°31.358 2°54.845 121.1 2.1 209 19.4
2009-04-02 13:37:53 51°31.327 2°54.818 127.8 2.5 210 16.6
2009-04-02 13:38:53 51°31.297 2°54.791 130.6 2 206 19.8
2009-04-02 13:39:53 51°31.266 2°54.765 132.2 2.2 210 15.8
2009-04-02 13:40:53 51°31.236 2°54.74 132.4 1.8 204 19.4
2009-04-02 13:41:53 51°31.206 2°54.715 130.7 2.2 209 17.5
2009-04-02 13:42:53 51°31.176 2°54.692 128 1.8 205 18.9
2009-04-02 13:43:53 51°31.145 2°54.667 127.8 2.2 207 18.2
2009-04-02 13:44:53 51°31.115 2°54.644 128.9 2 206 17.7
2009-04-02 13:45:53 51°31.084 2°54.62 130.4 1.9 202 18.7
2009-04-02 13:46:52 51°31.053 2°54.601 128.6 2.2 187 16.1
2009-04-02 13:47:53 51°31.021 2°54.631 80.4 2.2 115 18.7
2009-04-02 13:48:53 51°31.037 2°54.67 20.3 4.4 16 17.3
2009-04-02 13:49:53 51°31.152 2°54.749 27.1 8.7 26 17.9
2009-04-02 13:50:53 51°31.283 2°54.866 31.4 9 30 18.9
2009-04-02 13:51:53 51°31.415 2°54.988 31.4 9.2 30 16.7
2009-04-02 13:52:52 51°31.541 2°55.107 28.4 8.6 26 19
2009-04-02 13:53:53 51°31.636 2°55.19 25.7 3.9 24 20.3
2009-04-02 13:54:53 51°31.671 2°55.213 33.5 1.4 36 18.3
2009-04-02 13:55:53 51°31.68 2°55.234 37.8 0.6 58 18.7
2009-04-02 13:56:53 51°31.681 2°55.239 28.2 0.1 186 19.2
2009-04-02 13:57:53 51°31.678 2°55.236 30.8 0.6 203 18.5
2009-04-02 13:58:53 51°31.67 2°55.23 32.6 0.4 205 16.5
2009-04-02 13:59:52 51°31.663 2°55.226 34.2 0.3 206 18.2
2009-04-02 14:00:53 51°31.665 2°55.241 35.5 1.7 38 16.3
2009-04-02 14:01:53 51°31.703 2°55.284 33.4 3.5 34 18.4
2009-04-02 14:02:53 51°31.756 2°55.338 31.9 3.9 33 17.4
2009-04-02 14:03:53 51°31.815 2°55.401 33.1 4.3 33 16.8
2009-04-02 14:04:53 51°31.856 2°55.401 345.6 1.9 306 20.6
2009-04-02 14:05:53 51°31.859 2°55.354 323.8 1.8 260 19.5
2009-04-02 14:06:53 51°31.847 2°55.307 317.7 1.7 240 20.8
2009-04-02 14:07:53 51°31.83 2°55.272 318.8 1.6 230 20.9
2009-04-02 14:08:53 51°31.809 2°55.238 320.3 1.9 217 18.3
2009-04-02 14:09:53 51°31.784 2°55.213 316.6 1.7 213 20.8
2009-04-02 14:10:53 51°31.758 2°55.187 311 2.1 210 18.9
2009-04-02 14:11:53 51°31.73 2°55.166 300.7 1.8 204 20.2
2009-04-02 14:12:53 51°31.701 2°55.147 291.6 2 204 19.5
2009-04-02 14:13:52 51°31.673 2°55.131 289.8 1.7 200 20.7
2009-04-02 14:14:52 51°31.644 2°55.113 287 1.8 202 19.9
2009-04-02 14:15:52 51°31.616 2°55.094 282.4 1.7 202 18.9
2009-04-02 14:16:53 51°31.588 2°55.075 281.7 1.9 207 20.3
2009-04-02 14:17:51 51°31.566 2°55.018 277.5 3.8 251 17.8
2009-04-02 14:18:53 51°31.536 2°54.889 255.9 6 244 18.2
2009-04-02 14:19:53 51°31.474 2°54.706 245.8 9.1 241 19.8
2009-04-02 14:20:52 51°31.379 2°54.451 243.2 12.5 240 17.2
2009-04-02 14:21:53 51°31.268 2°54.154 243.6 12.8 238 19.9
2009-04-02 14:22:52 51°31.162 2°53.864 243.7 12.7 240 19.3
2009-04-02 14:23:52 51°31.046 2°53.586 235.4 12.9 238 18.1
2009-04-02 14:24:52 51°30.9 2°53.341 227.3 12.3 222 15.7
2009-04-02 14:25:53 51°30.727 2°53.136 216.3 12.8 215 17.4
2009-04-02 14:26:53 51°30.553 2°52.939 216.3 12.8 219 25.7
2009-04-02 14:27:53 51°30.378 2°52.736 216.9 13 210 27.7
2009-04-02 14:28:53 51°30.197 2°52.581 194.6 12.1 191 30.4
2009-04-02 14:29:52 51°29.994 2°52.558 182.1 12.5 179 29.4
2009-04-02 14:30:53 51°29.786 2°52.558 177.5 12.3 181 30.6
2009-04-02 14:31:52 51°29.583 2°52.556 178.4 12.4 180 31.5
2009-04-02 14:32:53 51°29.372 2°52.517 182.9 12.5 184 30.9
2009-04-02 14:33:52 51°29.167 2°52.463 185.2 12.7 188 29.8
2009-04-02 14:34:52 51°28.959 2°52.41 184.7 12.7 186 30.1
2009-04-02 14:35:52 51°28.75 2°52.354 182.5 12.9 188 29.8
2009-04-02 14:36:53 51°28.539 2°52.296 185.7 12.7 184 28.2
2009-04-02 14:37:53 51°28.328 2°52.241 185 12.8 187 25.8
2009-04-02 14:38:52 51°28.121 2°52.188 183 12.4 187 24.1
2009-04-02 14:39:53 51°27.91 2°52.132 184.6 12.9 193 21.9
2009-04-02 14:40:52 51°27.702 2°52.085 185.7 12.7 188 21.5
2009-04-02 14:41:53 51°27.487 2°52.035 185.5 12.7 189 20.2
2009-04-02 14:42:52 51°27.281 2°51.992 183 12.7 186 21.9
2009-04-02 14:43:52 51°27.072 2°51.95 184.2 12.6 183 19.1
2009-04-02 14:44:52 51°26.864 2°51.965 168 12.5 169 26.3
2009-04-02 14:45:53 51°26.653 2°51.99 171.3 12.8 180 28.2
2009-04-02 14:46:53 51°26.446 2°51.998 172.8 12.3 178 26
2009-04-02 14:47:51 51°26.247 2°52.007 174.8 12.6 180 26.3
2009-04-02 14:48:53 51°26.034 2°52.015 173.5 12.5 180 26.8
2009-04-02 14:49:53 51°25.829 2°52.024 173.9 12.4 174 27.3
2009-04-02 14:50:52 51°25.627 2°52.034 174.7 12.3 180 28.8
2009-04-02 14:51:52 51°25.422 2°52.053 170.9 12.2 174 26.7
2009-04-02 14:52:52 51°25.221 2°52.095 165.6 12.2 174 26.1
2009-04-02 14:53:53 51°25.014 2°52.131 168.8 12.5 179 24.1
2009-04-02 14:54:52 51°24.815 2°52.173 168.5 12.3 171 23
2009-04-02 14:55:52 51°24.611 2°52.215 168.1 12.4 166 22.2
2009-04-02 14:56:53 51°24.403 2°52.26 168.3 12.4 172 18.8
2009-04-02 14:57:52 51°24.202 2°52.307 169.6 12.6 172 18.5
2009-04-02 14:58:52 51°23.997 2°52.355 170.4 12.4 170 19.4
2009-04-02 14:59:52 51°23.795 2°52.41 169.2 12.2 170 17.9
2009-04-02 15:00:53 51°23.589 2°52.461 170.1 12.3 173 19.3
2009-04-02 15:01:52 51°23.389 2°52.486 175.2 12.3 181 21.6
2009-04-02 15:02:52 51°23.185 2°52.498 174.1 12.2 179 23.3
2009-04-02 15:03:52 51°22.98 2°52.494 179.4 12.4 180 23.6
2009-04-02 15:04:52 51°22.776 2°52.476 181.1 12.4 182 24.3
2009-04-02 15:05:53 51°22.569 2°52.461 180.3 12 182 23.8
2009-04-02 15:06:52 51°22.37 2°52.452 179.1 12 181 24.3
2009-04-02 15:07:53 51°22.165 2°52.447 178.4 11.9 180 25.2
2009-04-02 15:08:52 51°21.967 2°52.433 179 12.1 187 25
2009-04-02 15:09:53 51°21.762 2°52.431 178.5 12.2 180 23
2009-04-02 15:10:52 51°21.563 2°52.413 184.8 12.1 184 20.8
2009-04-02 15:11:53 51°21.357 2°52.378 185.7 12.3 184 19.1
2009-04-02 15:12:53 51°21.154 2°52.337 186.5 12.3 190 17.7
2009-04-02 15:13:52 51°20.953 2°52.311 181.4 12.5 186 16
2009-04-02 15:14:53 51°20.747 2°52.286 184.4 12.2 186 15.4
2009-04-02 15:15:52 51°20.547 2°52.252 184.9 12.1 185 16
2009-04-02 15:16:53 51°20.343 2°52.22 185.2 12.1 184 16.2
2009-04-02 15:17:52 51°20.145 2°52.191 184.3 12.1 183 16.6
2009-04-02 15:18:53 51°19.943 2°52.159 186.3 12.2 184 17.4
2009-04-02 15:19:52 51°19.748 2°52.127 185.8 11.9 185 17.4
2009-04-02 15:20:52 51°19.548 2°52.093 185.3 12.2 183 17
2009-04-02 15:21:52 51°19.351 2°52.057 186.1 12 183 16.8
2009-04-02 15:22:52 51°19.15 2°52.054 179.3 12.2 179 16.2
2009-04-02 15:23:53 51°18.945 2°52.058 179.6 12.3 180 15.2
2009-04-02 15:24:52 51°18.748 2°52.059 179.7 12 179 14.4
2009-04-02 15:25:53 51°18.544 2°52.062 178.7 11.8 183 13.5
2009-04-02 15:26:52 51°18.349 2°52.062 179.3 12.4 183 12.7
2009-04-02 15:27:53 51°18.146 2°52.068 179 12 177 12.3
2009-04-02 15:28:53 51°17.948 2°52.074 179.9 12.2 179 12
2009-04-02 15:29:53 51°17.748 2°52.077 179.2 11.5 180 12
2009-04-02 15:30:53 51°17.55 2°52.087 179.3 12.2 176 12.1
2009-04-02 15:31:53 51°17.348 2°52.094 178.9 12 176 12.1
2009-04-02 15:32:53 51°17.151 2°52.146 161.9 12 163 12.2
2009-04-02 15:33:53 51°16.972 2°52.292 152 12.2 150 11.5
2009-04-02 15:34:52 51°16.8 2°52.446 151.7 12.2 152 11.7
2009-04-02 15:35:52 51°16.622 2°52.597 153.3 12.4 153 12.8
2009-04-02 15:36:52 51°16.445 2°52.748 152.1 12 152 13.6
2009-04-02 15:37:52 51°16.267 2°52.893 155.3 12.2 154 13.7
2009-04-02 15:38:53 51°16.084 2°53.033 156 12 154 13.6
2009-04-02 15:39:53 51°15.905 2°53.174 156.7 11.9 154 13.3
2009-04-02 15:40:52 51°15.729 2°53.316 155.4 11.9 153 13.1
2009-04-02 15:41:53 51°15.544 2°53.454 155.7 11.8 156 12.8
2009-04-02 15:42:52 51°15.368 2°53.591 155.7 11.9 151 12.1
2009-04-02 15:43:53 51°15.187 2°53.732 153.4 11.9 154 11.6
2009-04-02 15:44:53 51°15.014 2°53.881 151.1 12 143 11.6
2009-04-02 15:45:53 51°14.865 2°54.085 142 12 133 11.4
2009-04-02 15:46:53 51°14.717 2°54.295 138.4 11.7 141 12.3
2009-04-02 15:47:53 51°14.581 2°54.525 137.5 12 129 12.4
2009-04-02 15:48:53 51°14.459 2°54.781 126.9 12 125 12.7
2009-04-02 15:49:52 51°14.358 2°55.053 123.1 12 119 12.4
2009-04-02 15:50:53 51°14.243 2°55.27 132.3 8.9 137 12.8
2009-04-02 15:51:56 51°14.124 2°55.407 154 8.5 154 -999
2009-04-02 15:52:57 51°13.997 2°55.5 155.2 7.6 156 -999
2009-04-02 15:53:56 51°13.89 2°55.578 154.7 6.9 155 -999
2009-04-02 15:54:57 51°13.791 2°55.664 140.1 6.3 142 -999
2009-04-02 15:55:56 51°13.723 2°55.776 129 5.7 130 -999
2009-04-02 15:56:57 51°13.677 2°55.889 108 4.5 110 -999
2009-04-02 15:57:57 51°13.665 2°55.953 114 0.8 113 -999